Time;durP1;ratioP1;P1;durP2;ratioP2;P2;SDS_P1;SDS_P2;PMS_P1;PMS_P2;Temp;Humidity;BMP_temperature;BMP_pressure;BME280_temperature;BME280_humidity;BME280_pressure;Samples;Min_cycle;Max_cycle;Signal;HPM_P1;HPM_P2
2021/05/14 00:00:49;;;;;;;;;;;12.20;99.90;;;;;;5035029;28;19916;-66
2021/05/14 00:03:15;;;;;;;;;;;12.20;99.90;;;;;;5017524;28;20003;-66
2021/05/14 00:05:40;;;;;;;;;;;12.20;99.90;;;;;;5035527;28;19916;-69
2021/05/14 00:08:06;;;;;;;;;;;12.20;99.90;;;;;;5035689;28;19910;-67
2021/05/14 00:10:35;;;;;;;;;;;12.10;99.90;;;;;;5018346;28;20424;-67
2021/05/14 00:13:01;;;;;;;;;;;12.10;99.90;;;;;;5021592;28;19919;-66
2021/05/14 00:15:26;;;;;;;;;;;12.10;99.90;;;;;;5022416;28;19961;-67
2021/05/14 00:17:54;;;;;;;;;;;12.10;99.90;;;;;;5039371;28;19916;-65
2021/05/14 00:20:19;;;;;;;;;;;12.10;99.90;;;;;;5039045;28;19935;-65
2021/05/14 00:22:47;;;;;;;;;;;12.00;99.90;;;;;;5021844;28;19909;-66
2021/05/14 00:25:13;;;;;;;;;;;12.00;99.90;;;;;;5038930;28;20238;-65
2021/05/14 00:27:39;;;;;;;;;;;11.90;99.90;;;;;;5039505;28;19909;-65
2021/05/14 00:30:05;;;;;;;;;;;11.90;99.90;;;;;;5040204;28;19924;-65
2021/05/14 00:32:30;;;;;;;;;;;11.90;99.90;;;;;;5040002;28;19920;-65
2021/05/14 00:34:56;;;;;;;;;;;11.90;99.90;;;;;;5006314;28;19921;-66
2021/05/14 00:37:21;;;;;;;;;;;11.90;99.90;;;;;;5039810;28;20249;-65
2021/05/14 00:39:47;;;;;;;;;;;11.80;99.90;;;;;;5039880;28;20409;-65
2021/05/14 00:42:13;;;;;;;;;;;11.80;99.90;;;;;;5038709;28;19909;-64
2021/05/14 00:44:39;;;;;;;;;;;11.80;99.90;;;;;;5020951;28;19949;-65
2021/05/14 00:47:09;;;;;;;;;;;11.80;99.90;;;;;;5020766;28;19913;-65
2021/05/14 00:49:35;;;;;;;;;;;11.80;99.90;;;;;;5037173;28;20337;-64
2021/05/14 00:52:03;;;;;;;;;;;11.70;99.90;;;;;;5038455;28;20000;-65
2021/05/14 00:54:31;;;;;;;;;;;11.60;99.90;;;;;;5039401;28;19909;-65
2021/05/14 00:56:59;;;;;;;;;;;11.60;99.90;;;;;;5021203;28;19909;-65
2021/05/14 00:59:25;;;;;;;;;;;11.60;99.90;;;;;;5038175;28;19988;-64
2021/05/14 01:01:51;;;;;;;;;;;11.50;99.90;;;;;;5037997;28;19963;-64
2021/05/14 01:04:16;;;;;;;;;;;11.50;99.90;;;;;;5020660;28;19917;-64
2021/05/14 01:06:42;;;;;;;;;;;11.50;99.90;;;;;;5021633;28;19917;-65
2021/05/14 01:09:07;;;;;;;;;;;11.40;99.90;;;;;;5021503;28;19912;-65
2021/05/14 01:11:35;;;;;;;;;;;11.50;99.90;;;;;;5020403;28;20315;-65
2021/05/14 01:14:01;;;;;;;;;;;11.40;99.90;;;;;;5037972;28;19956;-64
2021/05/14 01:16:29;;;;;;;;;;;11.30;99.90;;;;;;5003919;28;19951;-65
2021/05/14 01:18:54;;;;;;;;;;;11.30;99.90;;;;;;5020836;28;19932;-65
2021/05/14 01:21:20;;;;;;;;;;;11.30;99.90;;;;;;5037583;28;20315;-65
2021/05/14 01:23:46;;;;;;;;;;;11.20;99.90;;;;;;5036648;28;19986;-65
2021/05/14 01:26:12;;;;;;;;;;;11.20;99.90;;;;;;5020828;28;19913;-65
2021/05/14 01:28:40;;;;;;;;;;;11.20;99.90;;;;;;5019830;28;19944;-65
2021/05/14 01:31:08;;;;;;;;;;;11.10;99.90;;;;;;5037860;28;20322;-65
2021/05/14 01:33:33;;;;;;;;;;;11.10;99.90;;;;;;5037555;28;19969;-65
2021/05/14 01:35:59;;;;;;;;;;;11.10;99.90;;;;;;5038843;28;19909;-65
2021/05/14 01:38:27;;;;;;;;;;;11.00;99.90;;;;;;5038613;28;19952;-65
2021/05/14 01:40:52;;;;;;;;;;;11.00;99.90;;;;;;5020986;28;19920;-65
2021/05/14 01:43:20;;;;;;;;;;;11.00;99.90;;;;;;5020493;28;19917;-65
2021/05/14 01:45:48;;;;;;;;;;;11.00;99.90;;;;;;5037097;28;20250;-65
2021/05/14 01:48:13;;;;;;;;;;;11.00;99.90;;;;;;5019810;28;19909;-65
2021/05/14 01:50:41;;;;;;;;;;;11.00;99.90;;;;;;5020379;28;19932;-64
2021/05/14 01:53:07;;;;;;;;;;;10.90;99.90;;;;;;5019895;28;20003;-65
2021/05/14 01:55:35;;;;;;;;;;;10.90;99.90;;;;;;5036772;28;19963;-65
2021/05/14 01:58:03;;;;;;;;;;;10.90;99.90;;;;;;5019690;28;20022;-65
2021/05/14 02:00:30;;;;;;;;;;;11.00;99.90;;;;;;5036955;28;19909;-65
2021/05/14 02:02:58;;;;;;;;;;;10.90;99.90;;;;;;5036785;28;19909;-64
2021/05/14 02:05:24;;;;;;;;;;;10.90;99.90;;;;;;5037200;28;19960;-65
2021/05/14 02:10:52;;;;;;;;;;;10.80;99.90;;;;;;5037660;28;19928;-64
2021/05/14 02:13:18;;;;;;;;;;;10.80;99.90;;;;;;5036716;28;19909;-65
2021/05/14 02:15:43;;;;;;;;;;;10.80;99.90;;;;;;5019187;28;19988;-65
2021/05/14 02:18:09;;;;;;;;;;;10.80;99.90;;;;;;5019139;28;19909;-65
2021/05/14 02:20:36;;;;;;;;;;;10.80;99.90;;;;;;5034883;28;20318;-64
2021/05/14 02:23:03;;;;;;;;;;;10.80;99.90;;;;;;5019850;28;19917;-64
2021/05/14 02:25:31;;;;;;;;;;;10.70;99.90;;;;;;5037638;28;20292;-65
2021/05/14 02:27:57;;;;;;;;;;;10.80;99.90;;;;;;5020712;28;20331;-65
2021/05/14 02:30:22;;;;;;;;;;;10.80;99.90;;;;;;5020245;28;20008;-65
2021/05/14 02:32:48;;;;;;;;;;;10.80;99.90;;;;;;5037303;28;19996;-65
2021/05/14 02:35:16;;;;;;;;;;;10.70;99.90;;;;;;5018186;28;19909;-65
2021/05/14 02:37:41;;;;;;;;;;;10.80;99.90;;;;;;5018447;28;20378;-65
2021/05/14 02:40:07;;;;;;;;;;;10.80;99.90;;;;;;5035126;28;19909;-64
2021/05/14 02:42:33;;;;;;;;;;;10.80;99.90;;;;;;5036308;28;19909;-65
2021/05/14 02:44:58;;;;;;;;;;;10.80;99.90;;;;;;5036170;28;19928;-65
2021/05/14 02:47:24;;;;;;;;;;;10.80;99.90;;;;;;5036043;28;19909;-65
2021/05/14 02:49:49;;;;;;;;;;;10.80;99.90;;;;;;5035841;28;20399;-64
2021/05/14 02:52:19;;;;;;;;;;;10.80;99.90;;;;;;5037067;28;19917;-65
2021/05/14 02:54:45;;;;;;;;;;;10.80;99.90;;;;;;5018891;28;19909;-65
2021/05/14 02:57:10;;;;;;;;;;;10.80;99.90;;;;;;5035614;28;19970;-65
2021/05/14 02:59:36;;;;;;;;;;;10.80;99.90;;;;;;5018968;28;19909;-65
2021/05/14 03:02:07;;;;;;;;;;;10.80;99.90;;;;;;5035800;28;19993;-65
2021/05/14 03:04:35;;;;;;;;;;;10.80;99.90;;;;;;5036362;28;20357;-65
2021/05/14 03:07:01;;;;;;;;;;;10.80;99.90;;;;;;5036947;28;19909;-66
2021/05/14 03:09:29;;;;;;;;;;;10.80;99.90;;;;;;5019390;28;19913;-66
2021/05/14 03:11:57;;;;;;;;;;;10.80;99.90;;;;;;5019541;28;19917;-66
2021/05/14 03:14:23;;;;;;;;;;;10.80;99.90;;;;;;5035898;28;19913;-65
2021/05/14 03:16:51;;;;;;;;;;;10.80;99.90;;;;;;5019611;28;19920;-65
2021/05/14 03:19:16;;;;;;;;;;;10.80;99.90;;;;;;5018695;28;19909;-65
2021/05/14 03:21:44;;;;;;;;;;;10.70;99.90;;;;;;5035351;28;20361;-65
2021/05/14 03:24:12;;;;;;;;;;;10.70;99.90;;;;;;5035281;28;19917;-65
2021/05/14 03:26:38;;;;;;;;;;;10.70;99.90;;;;;;5018891;28;19920;-65
2021/05/14 03:29:03;;;;;;;;;;;10.80;99.90;;;;;;5017979;28;19925;-65
2021/05/14 03:31:29;;;;;;;;;;;10.70;99.90;;;;;;5036171;28;19909;-65
2021/05/14 03:33:54;;;;;;;;;;;10.70;99.90;;;;;;5034998;28;20254;-65
2021/05/14 03:36:25;;;;;;;;;;;10.70;99.90;;;;;;5035511;28;19909;-65
2021/05/14 03:38:51;;;;;;;;;;;10.70;99.90;;;;;;5036274;28;19967;-65
2021/05/14 03:43:44;;;;;;;;;;;10.60;99.90;;;;;;5036263;28;19909;-65
2021/05/14 03:46:10;;;;;;;;;;;10.50;99.90;;;;;;5018111;28;20234;-65
2021/05/14 03:48:38;;;;;;;;;;;10.50;99.90;;;;;;5035060;28;20261;-66
2021/05/14 03:51:03;;;;;;;;;;;10.50;99.90;;;;;;5036049;28;20360;-65
2021/05/14 03:53:29;;;;;;;;;;;10.50;99.90;;;;;;5034859;28;19920;-67
2021/05/14 03:55:57;;;;;;;;;;;10.50;99.90;;;;;;5017683;28;20249;-65
2021/05/14 03:58:22;;;;;;;;;;;10.50;99.90;;;;;;5034791;28;19956;-65
2021/05/14 04:00:48;;;;;;;;;;;10.40;99.90;;;;;;5017941;28;19920;-65
2021/05/14 04:03:16;;;;;;;;;;;10.50;99.90;;;;;;5035398;28;19928;-66
2021/05/14 04:05:42;;;;;;;;;;;10.50;99.90;;;;;;5001197;28;19921;-65
2021/05/14 04:08:09;;;;;;;;;;;10.40;99.90;;;;;;5036143;28;19909;-65
2021/05/14 04:16:02;;;;;;;;;;;10.40;99.90;;;;;;5035339;28;20353;-66
2021/05/14 04:18:27;;;;;;;;;;;10.30;99.90;;;;;;5040995;28;19913;-66
2021/05/14 04:20:53;;;;;;;;;;;10.30;99.90;;;;;;5017295;28;19935;-66
2021/05/14 04:23:18;;;;;;;;;;;10.30;99.90;;;;;;5018512;28;19909;-66
2021/05/14 04:25:49;;;;;;;;;;;10.30;99.90;;;;;;5017800;28;19924;-66
2021/05/14 04:28:15;;;;;;;;;;;10.30;99.90;;;;;;5035001;28;19913;-66
2021/05/14 04:30:43;;;;;;;;;;;10.30;99.90;;;;;;5017560;28;19917;-66
2021/05/14 04:33:08;;;;;;;;;;;10.30;99.90;;;;;;5034491;28;19909;-66
2021/05/14 04:35:36;;;;;;;;;;;10.30;99.90;;;;;;5001184;28;20055;-66
2021/05/14 04:38:02;;;;;;;;;;;10.30;99.90;;;;;;5019164;28;19975;-66
2021/05/14 04:40:30;;;;;;;;;;;10.30;99.90;;;;;;5017687;28;19909;-66
2021/05/14 04:42:59;;;;;;;;;;;10.30;99.90;;;;;;5019096;28;19919;-66
2021/05/14 04:45:24;;;;;;;;;;;10.30;99.90;;;;;;5035630;28;19909;-66
2021/05/14 04:47:50;;;;;;;;;;;10.30;99.90;;;;;;5018536;28;19932;-66
2021/05/14 04:50:18;;;;;;;;;;;10.30;99.90;;;;;;5035554;28;19948;-66
2021/05/14 04:52:45;;;;;;;;;;;10.30;99.90;;;;;;5035746;28;19913;-66
2021/05/14 04:55:13;;;;;;;;;;;10.40;99.90;;;;;;5018652;28;19909;-66
2021/05/14 04:57:39;;;;;;;;;;;10.40;99.90;;;;;;5035922;28;19920;-66
2021/05/14 05:00:05;;;;;;;;;;;10.40;99.90;;;;;;5036772;28;19909;-66
2021/05/14 05:02:35;;;;;;;;;;;10.50;99.90;;;;;;5021865;28;19920;-66
2021/05/14 05:05:01;;;;;;;;;;;10.50;99.90;;;;;;5022201;28;19940;-66
2021/05/14 05:07:26;;;;;;;;;;;10.50;99.90;;;;;;5020715;28;19972;-66
2021/05/14 05:09:52;;;;;;;;;;;10.50;99.90;;;;;;5020437;28;19913;-65
2021/05/14 05:12:17;;;;;;;;;;;10.50;99.90;;;;;;5020408;28;19913;-66
2021/05/14 05:14:43;;;;;;;;;;;10.50;99.90;;;;;;5037650;28;20004;-66
2021/05/14 05:17:09;;;;;;;;;;;10.50;99.90;;;;;;5037753;28;19909;-65
2021/05/14 05:19:34;;;;;;;;;;;10.50;99.90;;;;;;5020326;28;19909;-66
2021/05/14 05:22:00;;;;;;;;;;;10.50;99.90;;;;;;5020627;28;19909;-66
2021/05/14 05:24:28;;;;;;;;;;;10.50;99.90;;;;;;5037477;28;19917;-65
2021/05/14 05:26:56;;;;;;;;;;;10.60;99.90;;;;;;5037509;28;19928;-66
2021/05/14 05:29:23;;;;;;;;;;;10.50;99.90;;;;;;5037495;28;20349;-66
2021/05/14 05:31:51;;;;;;;;;;;10.50;99.90;;;;;;5037772;28;19991;-65
2021/05/14 05:34:17;;;;;;;;;;;10.50;99.90;;;;;;5037529;28;19909;-66
2021/05/14 05:36:43;;;;;;;;;;;10.50;99.90;;;;;;5021363;28;19920;-66
2021/05/14 05:39:13;;;;;;;;;;;10.50;99.90;;;;;;5038778;28;19909;-65
2021/05/14 05:41:39;;;;;;;;;;;10.40;99.90;;;;;;5020299;28;19971;-66
2021/05/14 05:44:04;;;;;;;;;;;10.40;99.90;;;;;;5037571;28;19991;-67
2021/05/14 05:46:30;;;;;;;;;;;10.50;99.90;;;;;;5038675;28;19996;-65
2021/05/14 05:48:55;;;;;;;;;;;10.40;99.90;;;;;;5020878;28;19982;-66
2021/05/14 05:51:21;;;;;;;;;;;10.50;99.90;;;;;;5037692;28;19924;-65
2021/05/14 05:53:49;;;;;;;;;;;10.50;99.90;;;;;;5036992;28;19914;-65
2021/05/14 05:56:14;;;;;;;;;;;10.60;99.90;;;;;;5037719;28;20313;-65
2021/05/14 05:58:40;;;;;;;;;;;10.60;99.90;;;;;;5019959;28;19944;-65
2021/05/14 06:01:10;;;;;;;;;;;10.60;99.90;;;;;;5037270;28;19909;-65
2021/05/14 06:03:38;;;;;;;;;;;10.70;99.90;;;;;;5038334;28;19909;-65
2021/05/14 06:06:03;;;;;;;;;;;10.70;99.90;;;;;;5020660;28;19992;-66
2021/05/14 06:08:34;;;;;;;;;;;10.70;99.90;;;;;;5019573;28;19957;-65
2021/05/14 06:11:02;;;;;;;;;;;10.80;99.90;;;;;;5037994;28;20341;-65
2021/05/14 06:13:28;;;;;;;;;;;10.80;99.90;;;;;;5004512;28;19916;-65
2021/05/14 06:15:59;;;;;;;;;;;10.80;99.90;;;;;;5002860;28;19909;-66
2021/05/14 06:18:24;;;;;;;;;;;10.90;99.90;;;;;;5036704;28;19917;-65
2021/05/14 06:20:53;;;;;;;;;;;11.00;99.90;;;;;;5035681;28;20217;-65
2021/05/14 06:23:18;;;;;;;;;;;11.00;99.90;;;;;;5018834;28;20212;-64
2021/05/14 06:25:44;;;;;;;;;;;11.10;99.90;;;;;;5037008;28;19920;-65
2021/05/14 06:28:15;;;;;;;;;;;11.20;99.90;;;;;;5003929;28;20343;-65
2021/05/14 06:30:43;;;;;;;;;;;11.30;99.90;;;;;;5019495;28;19928;-65
2021/05/14 06:33:11;;;;;;;;;;;11.40;99.90;;;;;;5036399;28;19921;-66
2021/05/14 06:35:38;;;;;;;;;;;11.60;99.90;;;;;;5036722;28;19923;-66
2021/05/14 06:38:04;;;;;;;;;;;11.70;99.90;;;;;;5036521;28;19909;-66
2021/05/14 06:40:30;;;;;;;;;;;11.80;99.90;;;;;;5036062;28;19967;-66
2021/05/14 06:42:57;;;;;;;;;;;11.80;99.90;;;;;;5036407;28;19909;-65
2021/05/14 06:45:27;;;;;;;;;;;11.90;99.90;;;;;;5035952;28;19945;-66
2021/05/14 06:48:00;;;;;;;;;;;12.00;99.90;;;;;;5036545;28;19909;-66
2021/05/14 06:50:25;;;;;;;;;;;12.10;99.90;;;;;;5037112;28;19924;-66
2021/05/14 06:52:53;;;;;;;;;;;12.20;99.90;;;;;;5019605;28;19913;-66
2021/05/14 06:55:19;;;;;;;;;;;12.30;99.90;;;;;;5036947;28;20014;-66
2021/05/14 06:57:44;;;;;;;;;;;12.40;99.90;;;;;;5036464;28;20335;-65
2021/05/14 07:00:10;;;;;;;;;;;12.50;99.90;;;;;;5035818;28;20374;-66
2021/05/14 07:02:38;;;;;;;;;;;12.60;99.90;;;;;;5018339;28;19966;-65
2021/05/14 07:05:04;;;;;;;;;;;12.70;99.90;;;;;;5035507;28;20365;-66
2021/05/14 07:07:34;;;;;;;;;;;12.70;99.90;;;;;;5035537;28;19913;-65
2021/05/14 07:09:59;;;;;;;;;;;12.70;99.90;;;;;;5035776;28;19995;-65
2021/05/14 07:12:30;;;;;;;;;;;12.80;99.90;;;;;;5019144;28;20328;-65
2021/05/14 07:14:55;;;;;;;;;;;12.90;99.90;;;;;;5019691;28;19913;-66
2021/05/14 07:17:21;;;;;;;;;;;12.90;99.90;;;;;;5036674;28;19924;-65
2021/05/14 07:19:47;;;;;;;;;;;12.90;99.90;;;;;;5019350;28;19909;-65
2021/05/14 07:22:14;;;;;;;;;;;13.00;99.90;;;;;;5018815;28;19909;-66
2021/05/14 07:24:40;;;;;;;;;;;13.00;99.90;;;;;;5018314;28;19916;-66
2021/05/14 07:27:06;;;;;;;;;;;12.90;99.90;;;;;;5036513;28;19909;-67
2021/05/14 07:32:37;;;;;;;;;;;12.90;99.90;;;;;;5035591;28;19925;-66
2021/05/14 07:35:05;;;;;;;;;;;13.00;99.90;;;;;;5017935;28;19912;-66
2021/05/14 07:37:30;;;;;;;;;;;13.00;99.90;;;;;;5019154;28;20266;-66
2021/05/14 07:39:56;;;;;;;;;;;13.10;99.90;;;;;;5035632;28;19920;-67
2021/05/14 07:42:21;;;;;;;;;;;13.20;99.90;;;;;;5036342;28;19913;-67
2021/05/14 07:47:52;;;;;;;;;;;13.40;99.90;;;;;;5036036;28;19921;-66
2021/05/14 07:50:18;;;;;;;;;;;13.50;99.90;;;;;;5035872;28;19913;-66
2021/05/14 07:52:45;;;;;;;;;;;13.50;99.90;;;;;;5035823;28;19920;-65
2021/05/14 07:55:10;;;;;;;;;;;13.60;99.90;;;;;;5036197;28;19952;-65
2021/05/14 07:57:38;;;;;;;;;;;13.60;99.90;;;;;;5018434;28;19916;-65
2021/05/14 08:03:07;;;;;;;;;;;13.70;99.90;;;;;;5035792;28;19920;-65
2021/05/14 08:05:32;;;;;;;;;;;13.60;99.90;;;;;;5036002;28;20285;-65
2021/05/14 08:11:03;;;;;;;;;;;13.60;99.90;;;;;;5036006;28;19940;-65
2021/05/14 08:13:31;;;;;;;;;;;13.60;99.90;;;;;;5036523;28;19925;-65
2021/05/14 08:18:59;;;;;;;;;;;13.60;99.90;;;;;;5035800;28;19996;-65
2021/05/14 08:21:24;;;;;;;;;;;13.70;99.90;;;;;;5035836;28;19948;-65
2021/05/14 08:23:50;;;;;;;;;;;13.70;99.90;;;;;;5015544;28;19952;-64
2021/05/14 08:26:17;;;;;;;;;;;13.80;99.90;;;;;;5016446;28;19960;-65
2021/05/14 08:28:43;;;;;;;;;;;13.80;98.40;;;;;;5015931;28;19909;-65
2021/05/14 08:31:11;;;;;;;;;;;13.80;99.60;;;;;;5015706;28;19968;-65
2021/05/14 08:33:38;;;;;;;;;;;14.00;99.90;;;;;;5016273;28;19910;-65
2021/05/14 08:36:04;;;;;;;;;;;14.00;99.90;;;;;;5019889;28;19920;-65
2021/05/14 08:38:30;;;;;;;;;;;14.00;97.30;;;;;;5019780;28;20004;-66
2021/05/14 08:40:59;;;;;;;;;;;14.10;99.90;;;;;;5019725;28;20265;-65
2021/05/14 08:43:24;;;;;;;;;;;14.10;99.90;;;;;;5018186;28;19914;-66
2021/05/14 08:45:54;;;;;;;;;;;14.00;99.90;;;;;;5019011;28;19929;-66
2021/05/14 08:48:20;;;;;;;;;;;14.00;99.90;;;;;;5018192;28;19910;-65
2021/05/14 08:50:46;;;;;;;;;;;14.00;99.90;;;;;;5018205;28;19924;-66
2021/05/14 08:53:11;;;;;;;;;;;14.00;99.90;;;;;;5018760;28;19952;-66
2021/05/14 08:55:37;;;;;;;;;;;14.10;99.90;;;;;;5019296;28;20223;-66
2021/05/14 09:01:05;;;;;;;;;;;14.00;99.90;;;;;;5019117;28;20265;-65
2021/05/14 09:03:33;;;;;;;;;;;13.90;99.30;;;;;;5018004;28;19913;-66
2021/05/14 09:06:03;;;;;;;;;;;14.00;99.90;;;;;;5018506;28;19976;-66
2021/05/14 09:08:29;;;;;;;;;;;14.00;99.40;;;;;;5019544;28;19910;-65
2021/05/14 09:10:55;;;;;;;;;;;14.00;98.70;;;;;;5018386;28;19917;-65
2021/05/14 09:13:21;;;;;;;;;;;14.00;98.90;;;;;;5019448;28;19916;-66
2021/05/14 09:15:47;;;;;;;;;;;14.10;99.90;;;;;;5018140;28;19972;-66
2021/05/14 09:18:19;;;;;;;;;;;14.10;99.90;;;;;;5017827;28;19909;-65
2021/05/14 09:20:57;;;;;;;;;;;14.20;99.90;;;;;;5019073;28;19981;-66
2021/05/14 09:23:27;;;;;;;;;;;14.30;96.00;;;;;;5021739;28;20354;-66
2021/05/14 09:25:57;;;;;;;;;;;14.40;98.40;;;;;;5038473;28;20323;-65
2021/05/14 09:28:22;;;;;;;;;;;14.50;97.70;;;;;;5020975;28;19920;-65
2021/05/14 09:31:07;;;;;;;;;;;14.60;99.90;;;;;;5038327;28;19917;-65
2021/05/14 09:33:33;;;;;;;;;;;14.80;99.90;;;;;;5038368;28;19909;-66
2021/05/14 09:36:01;;;;;;;;;;;14.90;98.00;;;;;;5021043;28;19909;-66
2021/05/14 09:38:27;;;;;;;;;;;15.10;99.90;;;;;;5038633;28;19948;-66
2021/05/14 09:43:55;;;;;;;;;;;15.20;91.20;;;;;;5038021;28;19966;-65
2021/05/14 09:46:27;;;;;;;;;;;15.20;86.60;;;;;;5037828;28;20001;-65
2021/05/14 09:48:57;;;;;;;;;;;15.20;80.30;;;;;;5020904;28;20238;-66
2021/05/14 09:51:25;;;;;;;;;;;15.20;85.00;;;;;;5038264;28;19913;-66
2021/05/14 09:53:50;;;;;;;;;;;15.30;90.20;;;;;;5038246;28;19995;-65
2021/05/14 09:59:21;;;;;;;;;;;15.60;95.90;;;;;;5038126;28;19920;-65
2021/05/14 10:01:47;;;;;;;;;;;15.70;87.40;;;;;;5038186;28;19916;-65
2021/05/14 10:04:12;;;;;;;;;;;15.60;77.70;;;;;;5020680;28;19909;-65
2021/05/14 10:06:40;;;;;;;;;;;15.50;79.60;;;;;;5037364;28;19916;-65
2021/05/14 10:09:09;;;;;;;;;;;15.40;84.30;;;;;;5020766;28;19974;-65
2021/05/14 10:11:35;;;;;;;;;;;15.30;79.20;;;;;;5020623;28;19909;-65
2021/05/14 10:14:02;;;;;;;;;;;15.30;83.40;;;;;;5037748;28;19987;-65
2021/05/14 10:16:28;;;;;;;;;;;15.40;92.50;;;;;;5003862;28;19909;-65
2021/05/14 10:18:57;;;;;;;;;;;15.50;84.70;;;;;;5037805;28;19909;-66
2021/05/14 10:21:22;;;;;;;;;;;15.50;85.80;;;;;;5019684;28;20303;-66
2021/05/14 10:23:53;;;;;;;;;;;15.50;90.80;;;;;;5037711;28;19928;-65
2021/05/14 10:26:18;;;;;;;;;;;15.50;83.40;;;;;;5018680;28;20273;-65
2021/05/14 10:28:45;;;;;;;;;;;15.40;78.10;;;;;;5019093;28;19920;-65
2021/05/14 10:34:16;;;;;;;;;;;14.90;90.40;;;;;;5037396;28;19920;-65
2021/05/14 10:36:43;;;;;;;;;;;14.60;93.00;;;;;;5020246;28;20335;-64
2021/05/14 10:39:13;;;;;;;;;;;14.00;96.00;;;;;;5019816;28;19909;-65
2021/05/14 10:41:48;;;;;;;;;;;13.70;99.90;;;;;;5037290;28;19996;-64
2021/05/14 10:44:13;;;;;;;;;;;13.40;99.90;;;;;;5035965;28;19909;-64
2021/05/14 10:46:41;;;;;;;;;;;13.20;99.90;;;;;;5020164;28;19920;-65
2021/05/14 10:49:08;;;;;;;;;;;13.20;99.90;;;;;;5019010;28;20318;-65
2021/05/14 10:51:48;;;;;;;;;;;13.20;99.90;;;;;;5036888;28;19924;-65
2021/05/14 10:54:49;;;;;;;;;;;13.30;99.90;;;;;;5019342;28;19909;-65
2021/05/14 10:57:36;;;;;;;;;;;13.40;99.90;;;;;;4956301;28;19910;-65
2021/05/14 11:00:20;;;;;;;;;;;13.50;99.90;;;;;;5030524;28;19986;-66
2021/05/14 11:02:45;;;;;;;;;;;13.60;99.90;;;;;;5036809;28;19917;-65
2021/05/14 11:05:17;;;;;;;;;;;13.80;99.90;;;;;;5003285;28;20323;-65
2021/05/14 11:07:42;;;;;;;;;;;13.90;99.90;;;;;;5020063;28;19910;-65
2021/05/14 11:10:14;;;;;;;;;;;13.90;99.90;;;;;;5036978;28;20000;-65
2021/05/14 11:12:40;;;;;;;;;;;14.00;99.90;;;;;;5036125;28;20342;-66
2021/05/14 11:15:26;;;;;;;;;;;14.00;99.90;;;;;;5019027;28;19963;-65
2021/05/14 11:18:07;;;;;;;;;;;14.20;99.90;;;;;;5022599;28;19913;-65
2021/05/14 11:20:44;;;;;;;;;;;14.30;99.90;;;;;;5036705;28;20330;-65
2021/05/14 11:23:29;;;;;;;;;;;14.40;99.90;;;;;;5018949;28;20255;-64
2021/05/14 11:25:54;;;;;;;;;;;14.50;99.90;;;;;;5018204;28;19913;-65
2021/05/14 11:28:20;;;;;;;;;;;14.60;99.90;;;;;;5018313;28;20260;-65
2021/05/14 11:30:57;;;;;;;;;;;14.70;99.90;;;;;;5017954;28;20327;-66
2021/05/14 11:33:26;;;;;;;;;;;14.80;99.90;;;;;;5034768;28;19909;-67
2021/05/14 11:35:51;;;;;;;;;;;14.80;99.90;;;;;;5017655;28;19924;-66
2021/05/14 11:38:17;;;;;;;;;;;14.80;99.90;;;;;;5017650;28;20319;-65
2021/05/14 11:40:48;;;;;;;;;;;14.70;99.90;;;;;;5018140;28;19917;-66
2021/05/14 11:43:14;;;;;;;;;;;14.80;99.90;;;;;;5036291;28;19927;-66
2021/05/14 11:45:40;;;;;;;;;;;14.80;99.90;;;;;;5018265;28;20333;-65
2021/05/14 11:48:11;;;;;;;;;;;14.80;99.90;;;;;;5035154;28;19975;-65
2021/05/14 11:50:42;;;;;;;;;;;14.80;99.90;;;;;;5035899;28;19935;-65
2021/05/14 11:53:11;;;;;;;;;;;15.20;99.90;;;;;;5035437;28;19921;-66
2021/05/14 11:55:37;;;;;;;;;;;15.30;99.90;;;;;;5018906;28;19941;-65
2021/05/14 11:58:03;;;;;;;;;;;15.50;99.90;;;;;;5035524;28;20346;-65
2021/05/14 12:00:30;;;;;;;;;;;15.50;99.90;;;;;;5035747;28;19909;-65
2021/05/14 12:02:58;;;;;;;;;;;15.50;99.90;;;;;;5036074;28;20403;-65
2021/05/14 12:05:28;;;;;;;;;;;15.60;99.90;;;;;;5035844;28;19917;-66
2021/05/14 12:11:01;;;;;;;;;;;15.70;99.90;;;;;;5035787;28;19964;-66
2021/05/14 12:13:32;;;;;;;;;;;15.70;99.90;;;;;;5035976;28;19909;-65
2021/05/14 12:15:57;;;;;;;;;;;15.70;99.90;;;;;;5036194;28;19909;-65
2021/05/14 12:18:25;;;;;;;;;;;15.70;99.90;;;;;;5035894;28;19921;-65
2021/05/14 12:20:55;;;;;;;;;;;15.50;94.80;;;;;;5035980;28;20331;-65
2021/05/14 12:23:26;;;;;;;;;;;15.20;92.50;;;;;;5018976;28;19917;-66
2021/05/14 12:25:53;;;;;;;;;;;15.00;95.80;;;;;;5035451;28;19927;-66
2021/05/14 12:28:28;;;;;;;;;;;14.80;97.70;;;;;;5018082;28;20060;-65
2021/05/14 12:30:53;;;;;;;;;;;14.70;99.90;;;;;;5035430;28;20003;-66
2021/05/14 12:33:19;;;;;;;;;;;14.60;98.20;;;;;;5018607;28;19967;-65
2021/05/14 12:35:54;;;;;;;;;;;14.50;98.00;;;;;;5035772;28;19920;-65
2021/05/14 12:38:22;;;;;;;;;;;14.50;98.00;;;;;;5017713;28;19920;-66
2021/05/14 12:40:50;;;;;;;;;;;14.60;99.90;;;;;;5017874;28;19919;-66
2021/05/14 12:43:18;;;;;;;;;;;14.60;99.90;;;;;;5034510;28;20012;-65
2021/05/14 12:45:46;;;;;;;;;;;14.70;99.90;;;;;;5016834;28;20329;-65
2021/05/14 12:48:12;;;;;;;;;;;14.60;98.00;;;;;;5017347;28;19935;-66
2021/05/14 12:50:41;;;;;;;;;;;14.60;94.70;;;;;;5018060;28;20323;-67
2021/05/14 12:53:06;;;;;;;;;;;14.70;95.20;;;;;;5018381;28;19999;-68
2021/05/14 12:55:38;;;;;;;;;;;14.70;94.00;;;;;;5018282;28;19941;-65
2021/05/14 12:58:03;;;;;;;;;;;14.80;99.90;;;;;;5035115;28;19916;-65
2021/05/14 13:00:33;;;;;;;;;;;14.90;99.90;;;;;;5035531;28;20285;-65
2021/05/14 13:03:09;;;;;;;;;;;15.10;99.20;;;;;;5034749;28;20326;-65
2021/05/14 13:05:39;;;;;;;;;;;15.20;99.60;;;;;;5017949;28;19947;-65
2021/05/14 13:08:05;;;;;;;;;;;15.30;89.60;;;;;;5035460;28;20350;-66
2021/05/14 13:10:34;;;;;;;;;;;15.40;95.50;;;;;;5033580;28;20297;-65
2021/05/14 13:13:02;;;;;;;;;;;15.50;90.70;;;;;;5017219;28;19909;-66
2021/05/14 13:15:28;;;;;;;;;;;15.50;89.10;;;;;;5035223;28;19996;-65
2021/05/14 13:17:56;;;;;;;;;;;15.60;93.10;;;;;;5035296;28;20014;-65
2021/05/14 13:20:21;;;;;;;;;;;15.60;93.00;;;;;;5036254;28;19910;-65
2021/05/14 13:22:47;;;;;;;;;;;15.50;81.60;;;;;;5038074;28;19935;-66
2021/05/14 13:25:12;;;;;;;;;;;15.50;84.60;;;;;;5003990;28;20312;-66
2021/05/14 13:30:43;;;;;;;;;;;15.50;85.20;;;;;;5038547;28;19983;-66
2021/05/14 13:33:08;;;;;;;;;;;15.50;90.90;;;;;;5037570;28;19952;-66
2021/05/14 13:35:34;;;;;;;;;;;15.60;92.80;;;;;;5020326;28;19920;-66
2021/05/14 13:38:00;;;;;;;;;;;15.70;86.50;;;;;;5037709;28;19909;-66
2021/05/14 13:40:25;;;;;;;;;;;15.70;90.70;;;;;;5038465;28;19913;-66
2021/05/14 13:42:53;;;;;;;;;;;15.70;79.70;;;;;;5038907;28;19913;-66
2021/05/14 13:45:21;;;;;;;;;;;15.90;93.50;;;;;;5037907;28;19920;-65
2021/05/14 13:50:49;;;;;;;;;;;16.00;89.90;;;;;;5037585;28;19920;-65
2021/05/14 13:53:18;;;;;;;;;;;16.10;82.00;;;;;;5021460;28;20238;-65
2021/05/14 13:55:44;;;;;;;;;;;16.20;91.20;;;;;;5038473;28;19944;-65
2021/05/14 14:01:13;;;;;;;;;;;16.40;80.10;;;;;;5038384;28;19932;-65
2021/05/14 14:03:41;;;;;;;;;;;16.60;75.50;;;;;;5038176;28;19913;-65
2021/05/14 14:06:07;;;;;;;;;;;16.80;80.60;;;;;;5038959;28;19909;-65
2021/05/14 14:08:32;;;;;;;;;;;17.00;77.10;;;;;;5020326;28;19982;-65
2021/05/14 14:10:58;;;;;;;;;;;17.20;83.10;;;;;;5038262;28;19925;-65
2021/05/14 14:13:23;;;;;;;;;;;17.30;79.60;;;;;;5038008;28;20299;-65
2021/05/14 14:15:49;;;;;;;;;;;17.50;84.30;;;;;;5038175;28;19928;-64
2021/05/14 14:18:14;;;;;;;;;;;17.60;86.30;;;;;;5037203;28;19913;-65
2021/05/14 14:20:40;;;;;;;;;;;17.70;84.80;;;;;;5038032;28;19920;-65
2021/05/14 14:23:06;;;;;;;;;;;17.70;78.70;;;;;;5019968;28;19909;-64
2021/05/14 14:25:33;;;;;;;;;;;17.80;66.10;;;;;;5036669;28;19917;-65
2021/05/14 14:27:59;;;;;;;;;;;17.60;66.20;;;;;;5038138;28;19910;-65
2021/05/14 14:30:24;;;;;;;;;;;17.70;69.70;;;;;;5020553;28;19982;-66
2021/05/14 14:32:50;;;;;;;;;;;17.80;79.80;;;;;;5037701;28;19948;-66
2021/05/14 14:35:16;;;;;;;;;;;17.90;69.90;;;;;;5020288;28;19909;-66
2021/05/14 14:37:41;;;;;;;;;;;18.00;75.10;;;;;;5036939;28;20330;-66
2021/05/14 14:40:13;;;;;;;;;;;18.10;75.10;;;;;;5037804;28;19909;-65
2021/05/14 14:42:40;;;;;;;;;;;18.10;66.30;;;;;;5020643;28;19925;-65
2021/05/14 14:48:09;;;;;;;;;;;17.90;67.20;;;;;;5037082;28;19971;-66
2021/05/14 14:50:37;;;;;;;;;;;17.70;63.70;;;;;;5019787;28;19913;-66
2021/05/14 14:53:04;;;;;;;;;;;17.60;68.00;;;;;;5037020;28;19909;-66
2021/05/14 14:55:32;;;;;;;;;;;17.50;63.40;;;;;;5036969;28;19908;-66
2021/05/14 14:58:00;;;;;;;;;;;17.40;66.00;;;;;;5003542;28;19926;-66
2021/05/14 15:00:28;;;;;;;;;;;17.40;72.10;;;;;;5019667;28;20349;-66
2021/05/14 15:02:53;;;;;;;;;;;17.30;66.70;;;;;;5037272;28;20374;-66
2021/05/14 15:05:22;;;;;;;;;;;17.30;69.30;;;;;;5019474;28;19989;-65
2021/05/14 15:07:47;;;;;;;;;;;17.20;64.20;;;;;;5036961;28;19913;-65
2021/05/14 15:10:15;;;;;;;;;;;17.10;66.90;;;;;;5019180;28;19913;-66